createdAt,value
2023-04-30T00:00:06.386Z,85.81
2023-04-30T00:01:06.325Z,85.90
2023-04-30T00:02:06.314Z,86.10
2023-04-30T00:03:06.358Z,85.62
2023-04-30T00:04:06.266Z,85.90
2023-04-30T00:05:06.156Z,85.90
2023-04-30T00:06:06.182Z,86.29
2023-04-30T00:07:06.091Z,86.00
2023-04-30T00:08:06.021Z,86.29
2023-04-30T00:09:05.977Z,86.86
2023-04-30T00:10:05.944Z,86.86
2023-04-30T00:11:05.895Z,87.24
2023-04-30T00:12:05.851Z,87.05
2023-04-30T00:13:05.818Z,87.24
2023-04-30T00:14:05.757Z,87.72
2023-04-30T00:15:05.722Z,87.62
2023-04-30T00:16:05.706Z,87.34
2023-04-30T00:17:05.630Z,87.62
2023-04-30T00:18:05.613Z,87.82
2023-04-30T00:19:05.694Z,88.01
2023-04-30T00:20:05.497Z,87.62
2023-04-30T00:21:05.456Z,87.72
2023-04-30T00:22:05.436Z,88.39
2023-04-30T00:23:05.363Z,87.82
2023-04-30T00:24:05.321Z,88.10
2023-04-30T00:25:05.299Z,88.20
2023-04-30T00:26:05.236Z,88.58
2023-04-30T00:27:05.224Z,88.29
2023-04-30T00:28:05.150Z,88.01
2023-04-30T00:29:05.104Z,88.01
2023-04-30T00:30:05.055Z,88.10
2023-04-30T00:31:05.018Z,87.53
2023-04-30T00:32:05.004Z,87.62
2023-04-30T00:33:04.997Z,87.62
2023-04-30T00:34:04.887Z,86.96
2023-04-30T00:35:04.834Z,86.76
2023-04-30T00:36:04.794Z,86.29
2023-04-30T00:37:04.754Z,86.00
2023-04-30T00:38:04.704Z,85.81
2023-04-30T00:39:04.685Z,86.00
2023-04-30T00:40:04.646Z,85.81
2023-04-30T00:41:04.568Z,85.90
2023-04-30T00:42:04.537Z,86.19
2023-04-30T00:43:04.495Z,85.90
2023-04-30T00:44:04.446Z,85.94
2023-04-30T00:45:04.397Z,86.19
2023-04-30T00:46:04.416Z,85.71
2023-04-30T00:47:04.310Z,84.95
2023-04-30T00:48:04.302Z,84.89
2023-04-30T00:49:04.225Z,85.18
2023-04-30T00:50:04.188Z,84.99
2023-04-30T00:51:04.140Z,84.70
2023-04-30T00:52:04.117Z,84.70
2023-04-30T00:53:04.064Z,84.80
2023-04-30T00:54:04.005Z,84.99
2023-04-30T00:55:03.961Z,85.09
2023-04-30T00:56:03.913Z,84.61
2023-04-30T00:57:03.889Z,84.52
2023-04-30T00:58:03.830Z,84.61
2023-04-30T00:59:03.796Z,84.32
2023-04-30T01:00:03.745Z,83.94
2023-04-30T01:01:03.708Z,84.32
2023-04-30T01:02:03.779Z,84.23
2023-04-30T01:03:03.783Z,83.56
2023-04-30T01:04:03.563Z,82.89
2023-04-30T01:05:03.534Z,83.27
2023-04-30T01:06:03.558Z,83.27
2023-04-30T01:07:03.455Z,82.98
2023-04-30T01:08:03.396Z,83.08
2023-04-30T01:09:03.378Z,82.98
2023-04-30T01:10:03.306Z,82.98
2023-04-30T01:11:03.259Z,82.60
2023-04-30T01:12:03.229Z,82.98
2023-04-30T01:13:03.176Z,82.60
2023-04-30T01:14:03.142Z,83.27
2023-04-30T01:15:03.110Z,83.37
2023-04-30T01:16:03.141Z,82.89
2023-04-30T01:17:03.000Z,82.89
2023-04-30T01:18:03.014Z,82.60
2023-04-30T01:19:02.950Z,82.60
2023-04-30T01:20:02.884Z,82.70
2023-04-30T01:21:02.824Z,82.51
2023-04-30T01:22:02.790Z,81.84
2023-04-30T01:23:02.746Z,81.84
2023-04-30T01:24:02.690Z,82.12
2023-04-30T01:25:02.683Z,82.12
2023-04-30T01:26:02.613Z,82.12
2023-04-30T01:27:02.576Z,82.89
2023-04-30T01:28:02.529Z,83.08
2023-04-30T01:29:02.483Z,83.33
2023-04-30T01:30:02.446Z,83.23
2023-04-30T01:31:02.434Z,84.38
2023-04-30T01:32:02.345Z,84.09
2023-04-30T01:33:02.366Z,84.95
2023-04-30T01:34:02.266Z,85.14
2023-04-30T01:35:03.324Z,85.42
2023-04-30T01:36:02.170Z,85.42
2023-04-30T01:37:02.127Z,85.62
2023-04-30T01:38:02.085Z,85.90
2023-04-30T01:39:02.058Z,85.90
2023-04-30T01:40:02.005Z,86.29
2023-04-30T01:41:01.984Z,85.96
2023-04-30T01:42:01.921Z,87.01
2023-04-30T01:43:01.873Z,86.53
2023-04-30T01:44:01.830Z,86.72
2023-04-30T01:45:01.776Z,87.68
2023-04-30T01:46:01.754Z,88.54
2023-04-30T01:47:01.712Z,88.54
2023-04-30T01:48:01.701Z,89.49
2023-04-30T01:49:01.628Z,89.39
2023-04-30T01:50:01.560Z,89.01
2023-04-30T01:51:01.545Z,89.01
2023-04-30T01:52:01.466Z,89.30
2023-04-30T01:53:01.426Z,89.97
2023-04-30T01:54:01.384Z,89.92
2023-04-30T01:55:01.343Z,89.73
2023-04-30T01:56:01.302Z,89.87
2023-04-30T01:57:01.280Z,90.59
2023-04-30T01:58:01.209Z,90.31
2023-04-30T01:59:01.170Z,90.69
2023-04-30T02:00:01.120Z,90.11
2023-04-30T02:01:01.090Z,90.64
2023-04-30T02:02:01.117Z,89.97
2023-04-30T02:03:01.048Z,90.06
2023-04-30T02:04:01.116Z,89.78
2023-04-30T02:05:00.894Z,90.06
2023-04-30T02:06:00.860Z,89.39
2023-04-30T02:07:00.818Z,89.39
2023-04-30T02:08:00.764Z,89.68
2023-04-30T02:09:00.754Z,89.87
2023-04-30T02:10:00.680Z,89.87
2023-04-30T02:11:00.669Z,89.78
2023-04-30T02:12:00.592Z,89.87
2023-04-30T02:13:00.596Z,89.30
2023-04-30T02:14:00.506Z,89.20
2023-04-30T02:15:00.465Z,89.30
2023-04-30T02:16:00.469Z,89.39
2023-04-30T02:17:00.375Z,89.30
2023-04-30T02:18:00.404Z,89.30
2023-04-30T02:19:00.311Z,89.30
2023-04-30T02:20:00.230Z,89.87
2023-04-30T02:21:00.188Z,89.87
2023-04-30T02:22:00.142Z,89.87
2023-04-30T02:23:00.159Z,89.87
2023-04-30T02:24:00.076Z,89.49
2023-04-30T02:25:00.020Z,89.39
2023-04-30T02:25:59.978Z,89.78
2023-04-30T02:26:59.935Z,89.59
2023-04-30T02:27:59.888Z,89.68
2023-04-30T02:28:59.859Z,89.11
2023-04-30T02:29:59.789Z,89.59
2023-04-30T02:30:59.750Z,89.39
2023-04-30T02:31:59.722Z,89.30
2023-04-30T02:32:59.697Z,89.30
2023-04-30T02:33:59.614Z,88.77
2023-04-30T02:34:59.598Z,88.58
2023-04-30T02:35:59.545Z,88.01
2023-04-30T02:36:59.481Z,87.82
2023-04-30T02:37:59.444Z,87.82
2023-04-30T02:38:59.399Z,87.62
2023-04-30T02:39:59.363Z,87.91
2023-04-30T02:40:59.348Z,86.57
2023-04-30T02:41:59.266Z,86.86
2023-04-30T02:42:59.220Z,86.10
2023-04-30T02:43:59.174Z,86.47
2023-04-30T02:44:59.135Z,87.05
2023-04-30T02:45:59.140Z,86.10
2023-04-30T02:46:59.069Z,86.00
2023-04-30T02:47:59.046Z,85.52
2023-04-30T02:48:58.960Z,85.81
2023-04-30T02:49:58.919Z,85.52
2023-04-30T02:50:58.872Z,85.90
2023-04-30T02:51:58.825Z,85.05
2023-04-30T02:52:58.795Z,85.24
2023-04-30T02:53:58.737Z,85.05
2023-04-30T02:54:58.702Z,85.52
2023-04-30T02:55:58.652Z,85.05
2023-04-30T02:56:58.609Z,84.85
2023-04-30T02:57:58.561Z,84.23
2023-04-30T02:58:58.560Z,85.28
2023-04-30T02:59:58.477Z,84.32
2023-04-30T03:00:58.447Z,84.32
2023-04-30T03:01:58.389Z,83.75
2023-04-30T03:02:58.418Z,83.75
2023-04-30T03:03:58.310Z,83.56
2023-04-30T03:04:58.266Z,83.08
2023-04-30T03:05:58.261Z,83.27
2023-04-30T03:06:58.168Z,83.46
2023-04-30T03:07:58.122Z,83.08
2023-04-30T03:08:58.088Z,83.08
2023-04-30T03:09:58.044Z,83.65
2023-04-30T03:10:58.021Z,83.46
2023-04-30T03:11:57.946Z,83.75
2023-04-30T03:12:57.913Z,84.23
2023-04-30T03:13:57.893Z,83.37
2023-04-30T03:14:57.820Z,84.03
2023-04-30T03:15:57.832Z,83.80
2023-04-30T03:16:57.739Z,84.19
2023-04-30T03:17:57.736Z,84.52
2023-04-30T03:18:57.647Z,84.32
2023-04-30T03:19:57.754Z,84.52
2023-04-30T03:20:57.554Z,84.32
2023-04-30T03:21:57.516Z,84.03
2023-04-30T03:22:57.506Z,84.23
2023-04-30T03:23:57.445Z,83.94
2023-04-30T03:24:57.399Z,84.13
2023-04-30T03:25:57.345Z,84.32
2023-04-30T03:26:57.303Z,84.32
2023-04-30T03:27:57.256Z,83.94
2023-04-30T03:28:57.220Z,83.94
2023-04-30T03:29:57.305Z,84.32
2023-04-30T03:30:57.128Z,84.13
2023-04-30T03:31:57.125Z,83.84
2023-04-30T03:32:57.072Z,83.84
2023-04-30T03:33:57.025Z,83.65
2023-04-30T03:34:56.964Z,82.60
2023-04-30T03:35:56.900Z,82.89
2023-04-30T03:36:56.865Z,82.98
2023-04-30T03:37:56.851Z,83.17
2023-04-30T03:38:56.779Z,82.89
2023-04-30T03:39:56.947Z,83.08
2023-04-30T03:40:56.702Z,82.70
2023-04-30T03:41:56.647Z,83.99
2023-04-30T03:42:56.607Z,84.19
2023-04-30T03:43:56.573Z,84.28
2023-04-30T03:44:56.519Z,84.38
2023-04-30T03:45:56.491Z,84.32
2023-04-30T03:46:56.439Z,83.65
2023-04-30T03:47:56.415Z,83.65
2023-04-30T03:48:56.337Z,83.75
2023-04-30T03:49:56.505Z,83.56
2023-04-30T03:50:56.256Z,84.28
2023-04-30T03:51:56.210Z,84.03
2023-04-30T03:52:56.169Z,84.28
2023-04-30T03:53:56.138Z,85.14
2023-04-30T03:54:56.075Z,85.14
2023-04-30T03:55:56.066Z,85.71
2023-04-30T03:56:56.005Z,85.52
2023-04-30T03:57:55.973Z,85.42
2023-04-30T03:58:55.904Z,85.71
2023-04-30T03:59:56.170Z,86.29
2023-04-30T04:00:55.819Z,86.96
2023-04-30T04:01:55.797Z,86.57
2023-04-30T04:02:55.762Z,86.47
2023-04-30T04:03:55.735Z,86.57
2023-04-30T04:04:55.698Z,86.19
2023-04-30T04:05:55.646Z,86.19
2023-04-30T04:06:55.561Z,86.96
2023-04-30T04:07:55.515Z,87.15
2023-04-30T04:08:55.470Z,87.15
2023-04-30T04:09:55.593Z,87.53
2023-04-30T04:10:55.382Z,87.43
2023-04-30T04:11:55.334Z,87.15
2023-04-30T04:12:55.311Z,86.86
2023-04-30T04:13:55.254Z,86.86
2023-04-30T04:14:55.597Z,86.76
2023-04-30T04:15:55.186Z,86.67
2023-04-30T04:16:55.119Z,86.38
2023-04-30T04:17:55.137Z,86.47
2023-04-30T04:18:55.040Z,86.61
2023-04-30T04:19:55.268Z,86.57
2023-04-30T04:20:54.963Z,86.23
2023-04-30T04:21:54.911Z,85.57
2023-04-30T04:22:54.856Z,85.09
2023-04-30T04:23:54.812Z,85.09
2023-04-30T04:24:54.775Z,85.57
2023-04-30T04:25:54.725Z,85.42
2023-04-30T04:26:54.700Z,85.47
2023-04-30T04:27:54.639Z,85.94
2023-04-30T04:28:54.600Z,85.47
2023-04-30T04:29:54.791Z,84.99
2023-04-30T04:30:54.505Z,85.18
2023-04-30T04:31:54.491Z,85.57
2023-04-30T04:32:54.473Z,85.18
2023-04-30T04:33:54.370Z,84.80
2023-04-30T04:34:54.381Z,84.99
2023-04-30T04:35:54.283Z,84.99
2023-04-30T04:36:54.243Z,84.99
2023-04-30T04:37:54.196Z,84.52
2023-04-30T04:38:54.171Z,83.75
2023-04-30T04:39:54.332Z,84.23
2023-04-30T04:40:54.099Z,84.32
2023-04-30T04:41:54.022Z,84.32
2023-04-30T04:42:53.969Z,84.23
2023-04-30T04:43:53.926Z,85.09
2023-04-30T04:44:53.890Z,84.76
2023-04-30T04:45:53.852Z,84.99
2023-04-30T04:46:53.896Z,84.99
2023-04-30T04:47:53.792Z,85.18
2023-04-30T04:48:53.713Z,84.70
2023-04-30T04:49:53.851Z,85.09
2023-04-30T04:50:53.619Z,84.80
2023-04-30T04:51:53.581Z,85.38
2023-04-30T04:52:53.598Z,85.38
2023-04-30T04:53:53.502Z,84.99
2023-04-30T04:54:53.446Z,84.99
2023-04-30T04:55:53.406Z,84.89
2023-04-30T04:56:53.370Z,84.99
2023-04-30T04:57:53.328Z,83.94
2023-04-30T04:58:53.313Z,84.32
2023-04-30T04:59:53.477Z,84.13
2023-04-30T05:00:53.206Z,84.70
2023-04-30T05:01:53.201Z,84.23
2023-04-30T05:02:53.188Z,84.32
2023-04-30T05:03:53.147Z,83.84
2023-04-30T05:04:53.056Z,83.46
2023-04-30T05:05:52.969Z,83.69
2023-04-30T05:06:52.921Z,83.22
2023-04-30T05:07:52.884Z,83.37
2023-04-30T05:08:52.841Z,82.93
2023-04-30T05:09:53.062Z,82.93
2023-04-30T05:10:52.769Z,82.64
2023-04-30T05:11:52.706Z,82.26
2023-04-30T05:12:52.664Z,82.26
2023-04-30T05:13:52.644Z,81.97
2023-04-30T05:14:52.579Z,82.07
2023-04-30T05:15:52.620Z,81.73
2023-04-30T05:16:52.509Z,81.97
2023-04-30T05:17:52.473Z,80.87
2023-04-30T05:18:52.417Z,81.15
2023-04-30T05:19:52.364Z,79.91
2023-04-30T05:20:52.319Z,80.48
2023-04-30T05:21:52.276Z,80.29
2023-04-30T05:22:52.249Z,80.10
2023-04-30T05:23:52.206Z,80.10
2023-04-30T05:24:52.145Z,79.33
2023-04-30T05:25:52.103Z,78.57
2023-04-30T05:26:52.062Z,78.95
2023-04-30T05:27:52.015Z,79.62
2023-04-30T05:28:52.002Z,79.33
2023-04-30T05:29:51.962Z,79.52
2023-04-30T05:30:51.909Z,79.33
2023-04-30T05:31:51.857Z,79.33
2023-04-30T05:32:51.924Z,79.33
2023-04-30T05:33:51.759Z,79.72
2023-04-30T05:34:51.754Z,79.43
2023-04-30T05:35:51.672Z,79.43
2023-04-30T05:36:51.627Z,78.86
2023-04-30T05:37:51.589Z,79.14
2023-04-30T05:38:51.548Z,78.66
2023-04-30T05:39:51.498Z,78.57
2023-04-30T05:40:51.471Z,79.43
2023-04-30T05:41:52.886Z,79.81
2023-04-30T05:42:51.371Z,79.14
2023-04-30T05:43:51.329Z,78.70
2023-04-30T05:44:51.289Z,78.61
2023-04-30T05:45:51.272Z,78.61
2023-04-30T05:46:51.207Z,78.22
2023-04-30T05:47:51.216Z,78.42
2023-04-30T05:48:51.117Z,78.22
2023-04-30T05:49:51.070Z,78.03
2023-04-30T05:50:51.034Z,78.13
2023-04-30T05:51:51.112Z,77.84
2023-04-30T05:52:50.941Z,77.75
2023-04-30T05:53:50.908Z,78.07
2023-04-30T05:54:50.863Z,77.21
2023-04-30T05:55:50.813Z,76.35
2023-04-30T05:56:50.787Z,75.58
2023-04-30T05:57:50.750Z,75.58
2023-04-30T05:58:50.687Z,75.58
2023-04-30T05:59:50.641Z,75.01
2023-04-30T06:03:47.374Z,74.15
2023-04-30T06:04:47.319Z,74.18
2023-04-30T06:05:47.451Z,74.18
2023-04-30T06:06:47.269Z,73.70
2023-04-30T06:07:47.157Z,73.61
2023-04-30T06:08:47.123Z,73.03
2023-04-30T06:09:47.104Z,72.84
2023-04-30T06:10:47.031Z,73.13
2023-04-30T06:11:46.979Z,73.51
2023-04-30T06:12:46.954Z,73.51
2023-04-30T06:13:46.915Z,73.16
2023-04-30T06:14:46.851Z,72.78
2023-04-30T06:15:46.819Z,72.88
2023-04-30T06:16:46.812Z,72.07
2023-04-30T06:17:46.755Z,72.36
2023-04-30T06:18:46.739Z,72.07
2023-04-30T06:19:46.644Z,72.45
2023-04-30T06:20:46.598Z,72.55
2023-04-30T06:21:46.556Z,72.11
2023-04-30T06:22:46.519Z,72.20
2023-04-30T06:23:46.474Z,72.20
2023-04-30T06:24:46.555Z,71.63
2023-04-30T06:25:46.395Z,71.82
2023-04-30T06:26:46.345Z,71.82
2023-04-30T06:27:46.303Z,72.01
2023-04-30T06:28:46.269Z,71.92
2023-04-30T06:29:46.221Z,71.82
2023-04-30T06:30:46.196Z,70.86
2023-04-30T06:31:46.208Z,71.09
2023-04-30T06:32:46.136Z,71.19
2023-04-30T06:33:46.060Z,70.48
2023-04-30T06:34:46.007Z,70.67
2023-04-30T06:35:45.991Z,71.09
2023-04-30T06:36:45.950Z,69.93
2023-04-30T06:37:45.882Z,69.81
2023-04-30T06:38:45.847Z,70.13
2023-04-30T06:39:45.804Z,69.65
2023-04-30T06:40:45.783Z,70.23
2023-04-30T06:41:45.715Z,69.74
2023-04-30T06:42:46.956Z,69.40
2023-04-30T06:43:45.638Z,68.73
2023-04-30T06:44:45.604Z,68.63
2023-04-30T06:45:45.573Z,67.80
2023-04-30T06:46:45.562Z,67.67
2023-04-30T06:47:45.497Z,66.90
2023-04-30T06:48:45.552Z,67.03
2023-04-30T06:49:45.392Z,66.36
2023-04-30T06:50:45.346Z,66.16
2023-04-30T06:51:45.303Z,65.20
2023-04-30T06:52:45.276Z,65.62
2023-04-30T06:53:45.242Z,65.23
2023-04-30T06:54:45.556Z,64.56
2023-04-30T06:55:45.175Z,64.85
2023-04-30T06:56:45.102Z,64.85
2023-04-30T06:57:45.064Z,65.62
2023-04-30T06:58:45.054Z,64.66
2023-04-30T06:59:44.991Z,64.85
2023-04-30T07:00:44.934Z,64.56
2023-04-30T07:01:44.934Z,64.47
2023-04-30T07:02:44.914Z,64.56
2023-04-30T07:03:44.989Z,65.05
2023-04-30T07:04:44.811Z,64.92
2023-04-30T07:05:44.732Z,65.30
2023-04-30T07:06:44.838Z,65.65
2023-04-30T07:07:44.652Z,65.88
2023-04-30T07:08:44.605Z,66.07
2023-04-30T07:09:44.564Z,66.16
2023-04-30T07:10:44.543Z,65.75
2023-04-30T07:11:44.481Z,65.94
2023-04-30T07:12:44.441Z,66.42
2023-04-30T07:13:44.403Z,65.84
2023-04-30T07:14:44.357Z,66.23
2023-04-30T07:15:44.325Z,66.23
2023-04-30T07:16:44.303Z,65.65
2023-04-30T07:17:44.312Z,66.13
2023-04-30T07:18:44.187Z,65.81
2023-04-30T07:19:44.153Z,66.61
2023-04-30T07:20:44.113Z,66.52
2023-04-30T07:21:44.074Z,66.29
2023-04-30T07:22:44.042Z,66.77
2023-04-30T07:23:43.991Z,67.35
2023-04-30T07:24:43.949Z,67.63
2023-04-30T07:25:43.915Z,67.16
2023-04-30T07:26:43.877Z,67.54
2023-04-30T07:27:43.821Z,67.63
2023-04-30T07:28:43.845Z,67.63
2023-04-30T07:29:43.738Z,67.73
2023-04-30T07:30:43.696Z,67.44
2023-04-30T07:31:43.674Z,67.83
2023-04-30T07:32:43.677Z,67.67
2023-04-30T07:33:43.576Z,67.76
2023-04-30T07:34:43.529Z,67.47
2023-04-30T07:35:43.519Z,66.80
2023-04-30T07:36:43.446Z,66.90
2023-04-30T07:37:43.462Z,66.71
2023-04-30T07:38:43.367Z,66.13
2023-04-30T07:39:43.340Z,66.13
2023-04-30T07:40:43.281Z,66.33
2023-04-30T07:41:43.294Z,66.33
2023-04-30T07:42:43.205Z,67.00
2023-04-30T07:43:43.162Z,66.90
2023-04-30T07:44:43.112Z,66.52
2023-04-30T07:45:43.119Z,66.23
2023-04-30T07:46:43.284Z,66.23
2023-04-30T07:47:43.032Z,66.42
2023-04-30T07:48:42.980Z,67.00
2023-04-30T07:49:42.952Z,67.00
2023-04-30T07:50:42.868Z,67.29
2023-04-30T07:51:42.826Z,67.19
2023-04-30T07:52:42.786Z,67.38
2023-04-30T07:53:42.748Z,67.09
2023-04-30T07:54:42.733Z,67.19
2023-04-30T07:55:42.656Z,67.00
2023-04-30T07:56:42.621Z,67.16
2023-04-30T07:57:42.574Z,67.16
2023-04-30T07:58:42.560Z,67.16
2023-04-30T07:59:42.493Z,67.44
2023-04-30T08:00:42.487Z,67.25
2023-04-30T08:01:42.477Z,67.19
2023-04-30T08:02:42.617Z,67.38
2023-04-30T08:03:42.453Z,67.38
2023-04-30T08:04:42.287Z,66.90
2023-04-30T08:05:42.247Z,67.09
2023-04-30T08:06:42.293Z,65.94
2023-04-30T08:07:42.165Z,66.42
2023-04-30T08:08:42.250Z,66.13
2023-04-30T08:09:42.092Z,65.94
2023-04-30T08:10:42.038Z,65.94
2023-04-30T08:11:42.001Z,66.23
2023-04-30T08:12:41.964Z,66.23
2023-04-30T08:13:41.911Z,66.23
2023-04-30T08:14:41.902Z,66.13
2023-04-30T08:15:41.834Z,66.03
2023-04-30T08:16:41.806Z,66.23
2023-04-30T08:17:41.759Z,66.07
2023-04-30T08:18:41.719Z,66.07
2023-04-30T08:19:41.665Z,65.97
2023-04-30T08:20:41.653Z,65.40
2023-04-30T08:21:41.587Z,65.97
2023-04-30T08:22:41.544Z,65.97
2023-04-30T08:23:41.502Z,65.88
2023-04-30T08:24:41.472Z,65.30
2023-04-30T08:25:41.420Z,65.88
2023-04-30T08:26:41.408Z,66.36
2023-04-30T08:27:41.338Z,66.26
2023-04-30T08:28:41.296Z,65.56
2023-04-30T08:29:41.260Z,65.65
2023-04-30T08:30:41.212Z,66.13
2023-04-30T08:31:41.206Z,66.33
2023-04-30T08:32:41.180Z,67.00
2023-04-30T08:33:41.119Z,67.00
2023-04-30T08:34:41.044Z,66.42
2023-04-30T08:35:41.006Z,66.49
2023-04-30T08:36:40.984Z,66.96
2023-04-30T08:37:40.927Z,67.06
2023-04-30T08:38:40.876Z,67.25
2023-04-30T08:39:40.897Z,67.16
2023-04-30T08:40:51.037Z,67.19
2023-04-30T08:41:40.755Z,67.09
2023-04-30T08:42:40.716Z,67.29
2023-04-30T08:43:40.674Z,66.80
2023-04-30T08:44:40.630Z,67.47
2023-04-30T08:45:40.638Z,67.38
2023-04-30T08:46:40.610Z,67.16
2023-04-30T08:47:40.634Z,67.63
2023-04-30T08:48:40.467Z,67.19
2023-04-30T08:49:40.430Z,66.80
2023-04-30T08:50:40.382Z,66.80
2023-04-30T08:51:40.407Z,66.71
2023-04-30T08:52:40.301Z,66.52
2023-04-30T08:53:40.262Z,66.90
2023-04-30T08:54:40.223Z,66.23
2023-04-30T08:55:40.191Z,66.33
2023-04-30T08:56:40.135Z,66.42
2023-04-30T08:57:40.110Z,66.36
2023-04-30T08:58:40.056Z,66.07
2023-04-30T08:59:40.032Z,66.16
2023-04-30T09:00:39.992Z,65.59
2023-04-30T09:01:39.946Z,65.14
2023-04-30T09:02:39.948Z,64.66
2023-04-30T09:03:39.979Z,64.66
2023-04-30T09:04:39.835Z,64.69
2023-04-30T09:05:39.769Z,63.51
2023-04-30T09:06:39.819Z,62.84
2023-04-30T09:07:41.507Z,63.41
2023-04-30T09:08:39.651Z,63.79
2023-04-30T09:09:39.765Z,63.79
2023-04-30T09:10:39.566Z,63.22
2023-04-30T09:11:39.520Z,63.51
2023-04-30T09:12:39.484Z,63.60
2023-04-30T09:13:39.438Z,63.64
2023-04-30T09:14:39.403Z,63.60
2023-04-30T09:15:39.497Z,63.45
2023-04-30T09:16:39.336Z,62.74
2023-04-30T09:17:39.299Z,62.74
2023-04-30T09:18:39.238Z,63.22
2023-04-30T09:19:39.204Z,62.84
2023-04-30T09:20:39.164Z,62.45
2023-04-30T09:21:39.138Z,62.48
2023-04-30T09:22:39.083Z,61.46
2023-04-30T09:23:39.042Z,61.68
2023-04-30T09:24:38.996Z,58.89
2023-04-30T09:25:38.978Z,59.17
2023-04-30T09:26:38.920Z,59.17
2023-04-30T09:27:38.881Z,59.30
2023-04-30T09:28:38.850Z,59.11
2023-04-30T09:29:38.801Z,58.37
2023-04-30T09:30:38.763Z,57.98
2023-04-30T09:31:38.892Z,57.60
2023-04-30T09:32:38.704Z,57.43
2023-04-30T09:33:38.646Z,56.85
2023-04-30T09:34:38.618Z,56.57
2023-04-30T09:35:38.566Z,55.82
2023-04-30T09:36:38.583Z,54.83
2023-04-30T09:37:38.743Z,55.60
2023-04-30T09:38:38.464Z,55.99
2023-04-30T09:39:38.408Z,55.60
2023-04-30T09:40:38.376Z,54.83
2023-04-30T09:41:38.345Z,54.47
2023-04-30T09:42:38.304Z,54.60
2023-04-30T09:43:38.593Z,53.56
2023-04-30T09:44:38.219Z,52.53
2023-04-30T09:45:38.183Z,50.91
2023-04-30T09:46:38.279Z,50.67
2023-04-30T09:47:38.122Z,49.02
2023-04-30T09:48:38.130Z,48.54
2023-04-30T09:49:38.058Z,48.66
2023-04-30T09:50:38.001Z,48.57
2023-04-30T09:51:37.977Z,48.49
2023-04-30T09:52:37.928Z,47.14
2023-04-30T09:53:37.901Z,46.66
2023-04-30T09:54:37.853Z,46.56
2023-04-30T09:55:37.841Z,46.75
2023-04-30T09:56:37.779Z,46.75
2023-04-30T09:57:37.785Z,46.87
2023-04-30T09:58:37.712Z,46.56
2023-04-30T09:59:37.697Z,46.46
2023-04-30T10:00:37.671Z,46.36
2023-04-30T10:01:39.631Z,46.09
2023-04-30T10:02:37.606Z,46.19
2023-04-30T10:03:37.560Z,46.09
2023-04-30T10:04:37.500Z,46.12
2023-04-30T10:05:37.484Z,46.22
2023-04-30T10:06:37.478Z,45.34
2023-04-30T10:07:37.401Z,44.67
2023-04-30T10:08:37.349Z,44.74
2023-04-30T10:09:37.316Z,45.01
2023-04-30T10:10:37.282Z,45.47
2023-04-30T10:11:37.253Z,46.22
2023-04-30T10:12:37.214Z,47.07
2023-04-30T10:13:37.190Z,48.13
2023-04-30T10:14:37.137Z,48.49
2023-04-30T10:15:37.096Z,48.49
2023-04-30T10:16:37.092Z,48.01
2023-04-30T10:17:37.052Z,48.11
2023-04-30T10:18:36.999Z,48.79
2023-04-30T10:19:36.971Z,48.32
2023-04-30T10:20:36.941Z,48.32
2023-04-30T10:21:36.874Z,48.37
2023-04-30T10:22:36.854Z,47.16
2023-04-30T10:23:36.802Z,46.60
2023-04-30T10:24:36.766Z,45.07
2023-04-30T10:25:36.741Z,44.07
2023-04-30T10:26:36.709Z,42.95
2023-04-30T10:27:36.662Z,41.73
2023-04-30T10:28:36.628Z,40.39
2023-04-30T10:29:36.620Z,39.26
2023-04-30T10:30:36.562Z,37.73
2023-04-30T10:31:36.561Z,37.83
2023-04-30T10:32:36.519Z,36.68
2023-04-30T10:33:36.464Z,36.19
2023-04-30T10:34:36.422Z,35.55
2023-04-30T10:35:36.408Z,34.77
2023-04-30T10:36:36.363Z,34.38
2023-04-30T10:37:36.331Z,34.36
2023-04-30T10:38:36.298Z,34.71
2023-04-30T10:39:36.262Z,35.55
2023-04-30T10:40:36.232Z,36.33
2023-04-30T10:41:36.228Z,36.88
2023-04-30T10:42:36.174Z,37.64
2023-04-30T10:43:36.124Z,38.09
2023-04-30T10:44:36.105Z,38.95
2023-04-30T10:45:36.080Z,39.90
2023-04-30T10:46:36.056Z,39.98
2023-04-30T10:47:36.192Z,40.54
2023-04-30T10:48:36.055Z,41.49
2023-04-30T10:49:35.921Z,42.24
2023-04-30T10:50:35.888Z,42.34
2023-04-30T10:51:35.853Z,42.14
2023-04-30T10:52:35.821Z,42.63
2023-04-30T10:53:35.800Z,42.80
2023-04-30T10:54:35.745Z,43.27
2023-04-30T10:55:35.709Z,43.65
2023-04-30T10:56:35.672Z,44.02
2023-04-30T10:57:35.635Z,44.98
2023-04-30T10:58:35.614Z,44.84
2023-04-30T10:59:35.624Z,46.20
2023-04-30T11:00:35.533Z,46.08
2023-04-30T11:01:35.541Z,46.56
2023-04-30T11:02:35.491Z,47.22
2023-04-30T11:03:35.413Z,48.08
2023-04-30T11:04:35.440Z,48.66
2023-04-30T11:05:35.452Z,48.95
2023-04-30T11:06:35.341Z,48.47
2023-04-30T11:07:35.263Z,48.37
2023-04-30T11:08:35.230Z,48.57
2023-04-30T11:09:35.189Z,48.28
2023-04-30T11:10:35.149Z,48.76
2023-04-30T11:11:35.220Z,49.24
2023-04-30T11:12:35.077Z,49.24
2023-04-30T11:13:35.039Z,49.34
2023-04-30T11:14:34.999Z,49.15
2023-04-30T11:15:34.979Z,48.37
2023-04-30T11:16:35.172Z,48.08
2023-04-30T11:17:34.990Z,48.47
2023-04-30T11:18:34.856Z,48.44
2023-04-30T11:19:34.804Z,48.74
2023-04-30T11:20:34.775Z,49.10
2023-04-30T11:21:34.780Z,49.77
2023-04-30T11:22:34.696Z,50.16
2023-04-30T11:24:34.639Z,49.58
2023-04-30T11:25:34.576Z,50.64
2023-04-30T11:26:34.548Z,49.84
2023-04-30T11:27:34.503Z,50.04
2023-04-30T11:28:34.495Z,51.29
2023-04-30T11:29:34.451Z,50.90
2023-04-30T11:30:34.389Z,51.29
2023-04-30T11:31:34.399Z,51.00
2023-04-30T11:32:34.349Z,51.29
2023-04-30T11:33:34.276Z,50.40
2023-04-30T11:34:34.254Z,51.36
2023-04-30T11:35:34.189Z,50.78
2023-04-30T11:36:34.196Z,51.94
2023-04-30T11:37:34.111Z,51.36
2023-04-30T11:38:34.071Z,51.94
2023-04-30T11:39:34.031Z,51.94
2023-04-30T11:40:34.002Z,52.04
2023-04-30T11:41:34.052Z,51.36
2023-04-30T11:42:33.943Z,50.78
2023-04-30T11:43:33.919Z,51.36
2023-04-30T11:44:33.839Z,50.98
2023-04-30T11:45:33.801Z,52.04
2023-04-30T11:46:33.779Z,51.75
2023-04-30T11:47:33.753Z,51.75
2023-04-30T11:48:33.679Z,51.84
2023-04-30T11:49:33.659Z,51.29
2023-04-30T11:50:33.632Z,50.90
2023-04-30T11:51:33.599Z,51.10
2023-04-30T11:52:33.528Z,50.54
2023-04-30T11:53:33.519Z,50.64
2023-04-30T11:54:33.455Z,50.38
2023-04-30T11:55:33.417Z,50.06
2023-04-30T11:56:33.381Z,49.22
2023-04-30T11:57:33.343Z,50.06
2023-04-30T11:58:33.289Z,49.68
2023-04-30T11:59:33.274Z,49.77
2023-04-30T12:00:33.224Z,48.90
2023-04-30T12:01:33.207Z,49.39
2023-04-30T12:02:33.283Z,49.10
2023-04-30T12:03:33.164Z,49.48
2023-04-30T12:04:33.123Z,49.96
2023-04-30T12:05:33.028Z,49.00
2023-04-30T12:06:33.037Z,48.71
2023-04-30T12:07:32.933Z,49.10
2023-04-30T12:08:32.903Z,49.00
2023-04-30T12:09:32.886Z,48.16
2023-04-30T12:10:32.884Z,48.52
2023-04-30T12:11:32.786Z,48.71
2023-04-30T12:12:32.744Z,49.29
2023-04-30T12:13:32.725Z,49.48
2023-04-30T12:14:32.659Z,49.19
2023-04-30T12:15:32.624Z,49.48
2023-04-30T12:16:32.652Z,49.77
2023-04-30T12:17:32.604Z,48.97
2023-04-30T12:18:32.500Z,49.19
2023-04-30T12:19:32.459Z,49.94
2023-04-30T12:20:32.443Z,49.94
2023-04-30T12:21:32.383Z,49.84
2023-04-30T12:22:32.389Z,49.84
2023-04-30T12:23:32.305Z,50.04
2023-04-30T12:24:32.268Z,49.94
2023-04-30T12:25:32.231Z,50.42
2023-04-30T12:26:32.328Z,49.75
2023-04-30T12:27:32.145Z,49.75
2023-04-30T12:28:32.116Z,50.26
2023-04-30T12:29:32.143Z,49.96
2023-04-30T12:30:32.032Z,49.68
2023-04-30T12:31:32.018Z,50.06
2023-04-30T12:32:32.066Z,49.58
2023-04-30T12:33:31.913Z,49.19
2023-04-30T12:34:33.691Z,50.06
2023-04-30T12:35:31.886Z,49.96
2023-04-30T12:36:31.882Z,49.77
2023-04-30T12:37:31.753Z,50.16
2023-04-30T12:38:31.794Z,49.87
2023-04-30T12:39:31.675Z,49.68
2023-04-30T12:40:31.709Z,50.35
2023-04-30T12:41:31.596Z,49.87
2023-04-30T12:42:31.615Z,49.96
2023-04-30T12:43:31.624Z,49.90
2023-04-30T12:44:31.484Z,49.77
2023-04-30T12:45:31.440Z,49.99
2023-04-30T12:46:31.481Z,49.80
2023-04-30T12:47:31.405Z,49.48
2023-04-30T12:48:31.322Z,49.10
2023-04-30T12:49:31.283Z,49.58
2023-04-30T12:50:31.249Z,50.16
2023-04-30T12:51:31.211Z,49.68
2023-04-30T12:52:31.197Z,50.06
2023-04-30T12:53:31.137Z,48.71
2023-04-30T12:54:31.088Z,49.00
2023-04-30T12:55:31.092Z,49.48